Time;durP1;ratioP1;P1;durP2;ratioP2;P2;SDS_P1;SDS_P2;PMS_P1;PMS_P2;Temp;Humidity;BMP_temperature;BMP_pressure;BME280_temperature;BME280_humidity;BME280_pressure;Samples;Min_cycle;Max_cycle;Signal;HPM_P1;HPM_P2
2022/05/25 00:02:13;;;;;;;4.65;2.42;;;;;;;14.76;64.63;99617.53;5116171;28;20406;-64
2022/05/25 00:04:57;;;;;;;4.63;2.20;;;;;;;14.74;64.79;99620.16;5116378;28;20090;-64
2022/05/25 00:07:47;;;;;;;3.05;2.38;;;;;;;14.74;64.73;99622.78;5131339;28;20088;-64
2022/05/25 00:10:34;;;;;;;3.95;2.20;;;;;;;14.74;64.67;99627.09;5116124;28;20104;-64
2022/05/25 00:13:18;;;;;;;3.75;2.72;;;;;;;14.73;64.80;99633.19;5116237;28;20197;-64
2022/05/25 00:16:04;;;;;;;5.13;2.42;;;;;;;14.71;64.62;99628.00;5131782;28;20513;-64
2022/05/25 00:21:54;;;;;;;4.85;2.42;;;;;;;14.71;64.66;99638.44;5131366;28;20069;-63
2022/05/25 00:24:38;;;;;;;3.72;2.33;;;;;;;14.70;64.56;99647.13;5131276;28;20085;-64
2022/05/25 00:27:28;;;;;;;4.25;2.10;;;;;;;14.69;64.68;99647.16;5131269;28;20054;-64
2022/05/25 00:30:21;;;;;;;4.63;2.70;;;;;;;14.70;64.98;99646.28;5115715;28;20042;-64
2022/05/25 00:33:08;;;;;;;2.83;2.10;;;;;;;14.68;64.72;99645.44;5115580;28;20182;-64
2022/05/25 00:35:52;;;;;;;3.53;2.40;;;;;;;14.67;64.75;99643.66;5130860;28;20123;-64
2022/05/25 00:38:36;;;;;;;2.97;2.13;;;;;;;14.67;64.74;99647.13;5115607;28;20127;-64
2022/05/25 00:41:36;;;;;;;4.15;2.75;;;;;;;14.65;64.71;99648.88;5130958;28;20084;-64
2022/05/25 00:44:21;;;;;;;2.97;2.38;;;;;;;14.64;64.55;99660.19;5115744;28;20046;-64
2022/05/25 00:47:06;;;;;;;5.03;2.35;;;;;;;14.65;64.77;99661.06;5130793;28;20058;-64
2022/05/25 00:49:53;;;;;;;3.38;2.80;;;;;;;14.63;64.84;99663.69;5130302;28;20138;-64
2022/05/25 00:52:45;;;;;;;3.15;2.50;;;;;;;14.62;64.75;99665.41;5115586;28;20476;-64
2022/05/25 00:55:31;;;;;;;5.50;3.08;;;;;;;14.61;64.61;99663.69;5130927;28;20050;-64
2022/05/25 00:58:23;;;;;;;5.10;3.05;;;;;;;14.62;64.94;99659.34;5115357;28;20037;-64
2022/05/25 01:01:07;;;;;;;11.48;4.22;;;;;;;14.60;64.78;99661.94;5124624;28;20096;-66
2022/05/25 01:03:54;;;;;;;7.90;2.53;;;;;;;14.59;64.56;99668.03;5116826;28;20051;-65
2022/05/25 01:07:02;;;;;;;7.20;3.55;;;;;;;14.59;64.83;99673.25;5116588;28;20051;-63
2022/05/25 01:10:04;;;;;;;20.48;3.72;;;;;;;14.59;64.84;99675.00;5100941;28;20043;-64
2022/05/25 01:13:15;;;;;;;3.63;2.63;;;;;;;14.59;64.71;99682.84;5101617;28;20139;-64
2022/05/25 01:16:25;;;;;;;3.60;2.47;;;;;;;14.56;64.77;99680.25;5116392;28;20113;-64
2022/05/25 01:19:24;;;;;;;6.45;3.40;;;;;;;14.54;64.61;99685.47;5101344;28;20108;-64
2022/05/25 01:22:27;;;;;;;5.10;2.67;;;;;;;14.54;64.75;99687.19;5100902;28;20046;-64
2022/05/25 01:25:49;;;;;;;5.45;2.88;;;;;;;14.53;64.75;99685.47;5116466;28;20121;-64
2022/05/25 01:28:58;;;;;;;5.13;3.33;;;;;;;14.52;64.79;99686.34;5100752;28;20104;-64
2022/05/25 01:32:01;;;;;;;6.00;3.38;;;;;;;14.51;64.90;99689.81;5100942;28;20042;-64
2022/05/25 01:34:55;;;;;;;4.57;3.10;;;;;;;14.50;64.65;99694.19;5100847;28;20058;-63
2022/05/25 01:38:00;;;;;;;3.75;3.00;;;;;;;14.49;64.77;99694.16;5116215;28;20067;-64
2022/05/25 01:41:03;;;;;;;5.30;2.78;;;;;;;14.48;64.80;99689.88;5100599;28;20081;-64
2022/05/25 01:43:58;;;;;;;3.90;3.15;;;;;;;14.47;64.83;99702.03;5100565;28;20520;-64
2022/05/25 01:46:46;;;;;;;3.97;2.78;;;;;;;14.46;64.56;99701.16;5100933;28;20393;-64
2022/05/25 01:49:45;;;;;;;3.38;2.60;;;;;;;14.45;64.67;99695.94;5100427;28;20104;-64
2022/05/25 01:52:33;;;;;;;8.63;3.78;;;;;;;14.44;64.64;99699.41;5115862;28;20054;-64
2022/05/25 01:55:23;;;;;;;3.78;2.75;;;;;;;14.44;64.75;99702.91;5100726;28;20046;-64
2022/05/25 01:58:14;;;;;;;4.47;3.13;;;;;;;14.43;64.51;99703.78;5100992;28;20105;-65
2022/05/25 02:01:05;;;;;;;4.57;2.80;;;;;;;14.41;64.76;99702.91;5100389;28;20100;-64
2022/05/25 02:06:59;;;;;;;5.13;2.70;;;;;;;14.40;64.66;99706.41;5115608;28;20102;-64
2022/05/25 02:10:20;;;;;;;4.70;2.67;;;;;;;14.39;64.61;99702.06;5100010;28;20093;-64
2022/05/25 02:13:22;;;;;;;4.40;2.47;;;;;;;14.38;64.66;99707.28;5114315;28;20057;-63
2022/05/25 02:16:16;;;;;;;4.90;2.78;;;;;;;14.38;64.70;99709.91;5100243;28;20051;-63
2022/05/25 02:19:34;;;;;;;4.20;2.80;;;;;;;14.37;64.53;99706.41;5100257;28;20123;-63
2022/05/25 02:22:30;;;;;;;4.35;2.45;;;;;;;14.35;64.86;99713.38;5115156;28;20050;-64
2022/05/25 02:25:25;;;;;;;6.90;3.20;;;;;;;14.33;64.72;99707.28;5100232;28;20085;-64
2022/05/25 02:28:39;;;;;;;5.13;2.65;;;;;;;14.33;64.72;99709.91;5099641;28;20410;-64
2022/05/25 02:31:30;;;;;;;6.78;2.95;;;;;;;14.32;64.59;99711.66;5114935;28;20092;-64
2022/05/25 02:34:17;;;;;;;3.92;3.15;;;;;;;14.32;64.61;99711.66;5114942;28;20042;-63
2022/05/25 02:37:02;;;;;;;5.28;3.05;;;;;;;14.32;64.67;99708.19;5099898;28;20082;-63
2022/05/25 02:39:53;;;;;;;4.00;2.80;;;;;;;14.30;64.48;99721.22;5100292;28;20097;-64
2022/05/25 02:42:44;;;;;;;6.47;2.50;;;;;;;14.29;64.72;99718.63;5114634;28;20051;-64
2022/05/25 02:45:28;;;;;;;5.07;2.72;;;;;;;14.29;64.54;99721.22;5115095;28;20046;-64
2022/05/25 02:48:14;;;;;;;4.50;3.05;;;;;;;14.29;64.69;99727.28;5114743;28;20042;-63
2022/05/25 02:51:02;;;;;;;8.50;3.25;;;;;;;14.28;64.88;99722.09;5114379;28;20086;-64
2022/05/25 02:53:47;;;;;;;5.07;2.67;;;;;;;14.27;64.70;99726.44;5099678;28;20398;-63
2022/05/25 02:56:32;;;;;;;4.70;2.80;;;;;;;14.26;64.65;99735.13;5099647;28;20086;-63
2022/05/25 02:59:16;;;;;;;7.40;3.67;;;;;;;14.23;64.77;99727.34;5099555;28;20513;-64
2022/05/25 03:02:04;;;;;;;5.13;3.05;;;;;;;14.19;64.63;99730.81;5099628;28;20051;-63
2022/05/25 03:04:49;;;;;;;3.40;2.33;;;;;;;14.17;64.51;99729.97;5099431;28;20070;-64
2022/05/25 03:07:34;;;;;;;;;;;;;;;14.16;64.66;99729.09;5100035;28;20444;-63
2022/05/25 03:10:19;;;;;;;7.03;2.75;;;;;;;14.15;64.56;99729.97;5114087;28;20127;-64
2022/05/25 03:13:10;;;;;;;;;;;;;;;14.13;64.73;99733.44;5099153;28;20096;-63
2022/05/25 03:15:59;;;;;;;5.85;2.90;;;;;;;14.13;64.65;99736.94;5098500;28;19925;-64
2022/05/25 03:18:43;;;;;;;2.90;2.30;;;;;;;14.13;64.65;99744.75;5114200;28;20093;-64
2022/05/25 03:21:39;;;;;;;3.45;2.33;;;;;;;14.13;64.67;99742.16;5099112;28;20115;-63
2022/05/25 03:24:28;;;;;;;6.25;2.88;;;;;;;14.13;64.53;99741.25;5098797;28;20047;-63
2022/05/25 03:27:16;;;;;;;4.13;2.92;;;;;;;14.14;64.79;99743.00;5098710;28;20172;-63
2022/05/25 03:30:00;;;;;;;3.58;2.58;;;;;;;14.13;64.68;99736.06;5098559;28;20062;-64
2022/05/25 03:32:44;;;;;;;4.90;2.25;;;;;;;14.14;64.70;99748.22;5114224;28;20057;-63
2022/05/25 03:35:30;;;;;;;4.93;2.50;;;;;;;14.13;64.64;99749.06;5113987;28;20131;-64
2022/05/25 03:38:14;;;;;;;7.45;3.08;;;;;;;14.11;64.72;99748.22;5098475;28;20088;-64
2022/05/25 03:41:00;;;;;;;3.15;2.53;;;;;;;14.09;64.79;99750.84;5098780;28;20109;-63
2022/05/25 03:43:47;;;;;;;4.22;2.60;;;;;;;14.08;65.11;99759.53;5098849;28;20123;-64
2022/05/25 03:46:36;;;;;;;3.92;2.42;;;;;;;14.07;64.62;99760.38;5098289;28;20169;-64
2022/05/25 03:49:20;;;;;;;4.75;2.30;;;;;;;14.06;64.71;99763.88;5098305;28;20513;-64
2022/05/25 03:52:05;;;;;;;3.83;2.08;;;;;;;14.06;64.50;99769.06;5114146;28;20409;-64
2022/05/25 03:54:50;;;;;;;5.78;3.03;;;;;;;14.06;64.80;99769.06;5098272;28;20082;-64
2022/05/25 03:57:34;;;;;;;5.15;2.72;;;;;;;14.07;64.77;99772.56;5098838;28;20047;-64
2022/05/25 04:00:21;;;;;;;7.43;2.63;;;;;;;14.05;64.64;99780.38;5113768;28;20073;-63
2022/05/25 04:03:06;;;;;;;5.35;2.72;;;;;;;14.03;64.43;99782.09;5098217;28;20073;-63
2022/05/25 04:05:50;;;;;;;;;;;;;;;13.98;64.52;99784.72;5098793;28;20218;-64
2022/05/25 04:08:37;;;;;;;6.20;2.30;;;;;;;13.94;64.63;99780.38;5098686;28;19918;-64
2022/05/25 04:11:21;;;;;;;7.60;2.65;;;;;;;13.94;64.61;99784.75;5098159;28;20059;-64
2022/05/25 04:14:05;;;;;;;;;;;;;;;13.90;64.33;99789.09;5098762;28;20039;-63
2022/05/25 04:16:49;;;;;;;4.47;2.58;;;;;;;13.89;64.61;99789.09;5113351;28;19930;-64
2022/05/25 04:19:38;;;;;;;4.68;2.55;;;;;;;13.90;64.85;99793.44;5113443;28;20482;-63
2022/05/25 04:22:23;;;;;;;5.05;2.97;;;;;;;13.88;64.36;99798.66;5098371;28;20160;-64
2022/05/25 04:25:11;;;;;;;4.03;2.55;;;;;;;13.88;64.66;99796.03;5113837;28;20054;-63
2022/05/25 04:27:57;;;;;;;3.40;2.42;;;;;;;13.88;64.95;99795.16;5098369;28;20501;-65
2022/05/25 04:30:47;;;;;;;5.78;2.67;;;;;;;13.87;64.62;99794.31;5098476;28;20554;-63
2022/05/25 04:33:42;;;;;;;3.92;2.30;;;;;;;13.84;64.59;99795.19;5098474;28;20053;-64
2022/05/25 04:36:26;;;;;;;5.07;2.50;;;;;;;13.82;64.52;99791.72;5099322;28;20053;-63
2022/05/25 04:39:16;;;;;;;8.73;3.22;;;;;;;13.79;64.59;99798.66;5102293;28;20082;-64
2022/05/25 04:42:03;;;;;;;4.20;3.10;;;;;;;13.77;64.69;99803.88;5102057;28;20551;-64
2022/05/25 04:44:47;;;;;;;5.55;3.03;;;;;;;13.75;64.67;99810.81;5101795;28;20418;-64
2022/05/25 04:47:38;;;;;;;4.20;3.00;;;;;;;13.75;64.60;99802.16;5117299;28;20456;-63
2022/05/25 04:50:33;;;;;;;5.22;3.22;;;;;;;13.74;64.62;99803.00;5101554;28;20451;-63
2022/05/25 04:53:19;;;;;;;3.88;2.78;;;;;;;13.72;64.56;99805.59;5116896;28;20046;-63
2022/05/25 04:59:12;;;;;;;6.18;2.80;;;;;;;13.72;64.77;99813.41;5116880;28;20402;-63
2022/05/25 05:02:05;;;;;;;4.35;2.55;;;;;;;13.71;64.78;99814.28;5102095;28;20517;-63
2022/05/25 05:04:51;;;;;;;5.45;2.72;;;;;;;13.69;64.43;99819.50;5101590;28;20502;-64
2022/05/25 05:07:44;;;;;;;6.55;2.80;;;;;;;13.67;64.47;99822.97;5116525;28;20116;-63
2022/05/25 05:10:34;;;;;;;12.60;3.70;;;;;;;13.65;64.56;99822.09;5116583;28;20085;-64
2022/05/25 05:13:21;;;;;;;6.63;3.10;;;;;;;13.63;64.57;99822.09;5116930;28;20058;-63
2022/05/25 05:16:09;;;;;;;4.90;2.50;;;;;;;13.67;64.71;99820.38;5101030;28;20538;-63
2022/05/25 05:18:53;;;;;;;4.53;3.28;;;;;;;13.63;65.01;99823.84;5101241;28;20039;-63
2022/05/25 05:21:48;;;;;;;5.70;2.70;;;;;;;13.61;64.61;99818.66;5116242;28;20050;-63
2022/05/25 05:24:32;;;;;;;3.90;2.80;;;;;;;13.60;64.74;99826.44;5101319;28;20050;-65
2022/05/25 05:27:17;;;;;;;8.68;3.05;;;;;;;13.53;64.42;99818.66;5116336;28;20082;-64
2022/05/25 05:30:15;;;;;;;4.40;2.95;;;;;;;13.51;64.79;99819.50;5101016;28;20517;-65
2022/05/25 05:33:11;;;;;;;5.32;2.40;;;;;;;13.50;64.57;99829.06;5101209;28;20572;-65
2022/05/25 05:36:18;;;;;;;5.20;2.70;;;;;;;13.49;64.80;99827.31;5100039;28;20104;-64
2022/05/25 05:39:08;;;;;;;5.22;2.42;;;;;;;13.50;64.94;99830.78;5100386;28;20051;-64
2022/05/25 05:41:59;;;;;;;5.65;2.40;;;;;;;13.50;64.84;99829.06;5115890;28;20043;-63
2022/05/25 05:44:57;;;;;;;4.00;2.60;;;;;;;13.48;64.74;99829.91;5115873;28;20106;-64
2022/05/25 05:48:19;;;;;;;5.82;2.45;;;;;;;13.48;64.77;99827.28;5100034;28;20042;-64
2022/05/25 05:51:04;;;;;;;4.95;2.38;;;;;;;13.46;64.66;99829.91;5094425;28;20058;-63
2022/05/25 05:53:54;;;;;;;3.95;2.00;;;;;;;13.47;64.82;99830.78;5094941;28;20047;-64
2022/05/25 05:56:47;;;;;;;4.25;2.15;;;;;;;13.45;64.89;99824.72;5094384;28;20047;-63
2022/05/25 05:59:31;;;;;;;3.85;2.33;;;;;;;13.44;64.90;99828.19;5095659;28;20177;-63
2022/05/25 06:02:15;;;;;;;6.93;2.25;;;;;;;13.47;64.76;99833.41;5095337;28;20051;-65
2022/05/25 06:05:01;;;;;;;3.75;2.50;;;;;;;13.47;64.76;99841.22;5094121;28;20135;-63
2022/05/25 06:07:53;;;;;;;5.78;2.03;;;;;;;13.48;64.71;99849.00;5095285;28;20472;-64
2022/05/25 06:10:41;;;;;;;3.10;2.30;;;;;;;13.49;64.89;99849.84;5093715;28;20101;-64
2022/05/25 06:13:28;;;;;;;4.00;2.03;;;;;;;13.49;65.03;99847.25;5094374;28;20055;-65
2022/05/25 06:19:33;;;;;;;6.80;2.40;;;;;;;13.46;65.03;99852.50;5094903;28;20138;-64
2022/05/25 06:22:20;;;;;;;2.75;1.77;;;;;;;13.43;64.93;99857.69;5095115;28;20096;-64
2022/05/25 06:25:08;;;;;;;2.72;1.92;;;;;;;13.44;64.98;99856.81;5095010;28;20086;-63
2022/05/25 06:27:57;;;;;;;3.42;2.60;;;;;;;13.45;64.97;99843.78;5094009;28;20445;-64
2022/05/25 06:30:44;;;;;;;4.82;1.65;;;;;;;13.47;64.90;99847.28;5094713;28;20093;-63
2022/05/25 06:33:38;;;;;;;4.47;2.38;;;;;;;13.48;64.74;99835.09;5094408;28;20047;-64
2022/05/25 06:36:25;;;;;;;4.93;2.25;;;;;;;13.46;64.77;99849.88;5093940;28;20514;-63
2022/05/25 06:39:12;;;;;;;5.70;2.10;;;;;;;13.44;64.79;99857.66;5094142;28;20075;-63
2022/05/25 06:41:59;;;;;;;3.95;2.00;;;;;;;13.46;64.91;99870.72;5093943;28;20051;-64
2022/05/25 06:44:48;;;;;;;6.18;2.38;;;;;;;13.45;64.91;99867.22;5093543;28;20083;-63
2022/05/25 06:47:35;;;;;;;4.45;2.08;;;;;;;13.47;64.81;99877.66;5093841;28;20098;-63
2022/05/25 06:50:19;;;;;;;2.15;1.95;;;;;;;13.45;64.91;99872.44;5093133;28;20177;-64
2022/05/25 06:53:09;;;;;;;3.67;1.58;;;;;;;13.46;65.04;99881.97;5094556;28;20051;-64
2022/05/25 06:55:58;;;;;;;6.72;2.00;;;;;;;13.47;64.84;99877.66;5093681;28;20131;-63
2022/05/25 06:58:52;;;;;;;4.35;2.00;;;;;;;13.47;64.68;99880.25;5092631;28;20088;-64
2022/05/25 07:01:45;;;;;;;7.72;2.47;;;;;;;13.47;64.71;99882.88;5094433;28;20051;-63
2022/05/25 07:04:35;;;;;;;5.32;2.10;;;;;;;13.43;65.02;99891.53;5094249;28;20097;-63
2022/05/25 07:07:22;;;;;;;2.42;1.83;;;;;;;13.44;64.62;99883.72;5093937;28;20422;-64
2022/05/25 07:10:06;;;;;;;2.22;1.60;;;;;;;13.47;64.74;99890.66;5092806;28;20521;-64
2022/05/25 07:12:53;;;;;;;;;;;;;;;13.46;64.62;99902.81;5094120;28;20476;-65
2022/05/25 07:15:49;;;;;;;4.85;2.15;;;;;;;13.45;64.64;99900.22;5093859;28;19919;-64
2022/05/25 07:18:39;;;;;;;3.10;1.85;;;;;;;13.45;64.77;99901.06;5092919;28;20042;-64
2022/05/25 07:21:30;;;;;;;4.32;2.00;;;;;;;13.45;64.75;99901.06;5092609;28;20047;-63
2022/05/25 07:24:17;;;;;;;3.08;1.73;;;;;;;13.45;64.90;99898.47;5093789;28;20463;-63
2022/05/25 07:27:06;;;;;;;3.67;1.75;;;;;;;13.47;65.00;99907.16;5092855;28;20089;-63
2022/05/25 07:29:56;;;;;;;1.92;1.65;;;;;;;13.48;64.94;99903.69;5092815;28;20047;-64
2022/05/25 07:32:46;;;;;;;1.98;1.73;;;;;;;13.49;64.63;99908.03;5093856;28;20051;-63
2022/05/25 07:35:30;;;;;;;3.20;1.60;;;;;;;13.49;64.87;99902.81;5094104;28;20051;-64
2022/05/25 07:38:17;;;;;;;4.05;1.85;;;;;;;13.50;64.51;99907.16;5093120;28;20054;-64
2022/05/25 07:41:01;;;;;;;5.53;1.75;;;;;;;13.51;64.31;99916.72;5093674;28;20050;-63
2022/05/25 07:43:57;;;;;;;;;;;;;;;13.50;64.33;99914.09;5093553;28;20521;-64
2022/05/25 07:46:49;;;;;;;3.17;2.10;;;;;;;13.48;64.35;99906.28;5093726;28;20397;-63
2022/05/25 07:49:38;;;;;;;3.40;1.48;;;;;;;13.49;64.54;99907.13;5092299;28;20047;-63
2022/05/25 07:52:28;;;;;;;3.70;2.00;;;;;;;13.49;64.33;99910.63;5092481;28;20047;-63
2022/05/25 07:55:21;;;;;;;6.65;1.95;;;;;;;13.49;64.07;99913.22;5093305;28;20083;-64
2022/05/25 07:58:11;;;;;;;2.55;1.40;;;;;;;13.50;64.21;99906.28;5093863;28;20097;-64
2022/05/25 08:01:12;;;;;;;5.18;1.90;;;;;;;13.49;64.24;99912.34;5092722;28;20101;-63
2022/05/25 08:07:09;;;;;;;2.60;1.48;;;;;;;13.50;63.74;99911.47;5093558;28;20562;-64
2022/05/25 08:10:03;;;;;;;;;;;;;;;13.49;63.97;99912.34;5093754;28;20039;-64
2022/05/25 08:12:53;;;;;;;3.28;1.52;;;;;;;13.50;63.81;99912.38;5096054;28;19923;-64
2022/05/25 08:15:43;;;;;;;1.45;1.30;;;;;;;13.52;64.08;99917.56;5097507;28;20078;-64
2022/05/25 08:18:29;;;;;;;3.42;1.40;;;;;;;13.55;63.76;99914.97;5097497;28;20086;-64
2022/05/25 08:21:21;;;;;;;2.78;1.45;;;;;;;13.56;64.17;99911.50;5097156;28;20102;-63
2022/05/25 08:24:05;;;;;;;2.03;1.58;;;;;;;13.60;64.13;99922.78;5096621;28;20042;-64
2022/05/25 08:26:49;;;;;;;3.70;2.25;;;;;;;13.62;64.23;99928.88;5097350;28;20080;-64
2022/05/25 08:29:36;;;;;;;3.53;1.48;;;;;;;13.63;64.05;99928.84;5097302;28;20124;-64
2022/05/25 08:32:21;;;;;;;1.75;1.52;;;;;;;13.65;64.46;99932.34;5097662;28;20055;-64
2022/05/25 08:35:06;;;;;;;2.35;1.67;;;;;;;13.69;63.76;99928.88;5096817;28;20081;-64
2022/05/25 08:37:55;;;;;;;3.10;1.60;;;;;;;13.73;64.21;99924.53;5096197;28;20055;-64
2022/05/25 08:40:41;;;;;;;2.25;1.90;;;;;;;13.78;64.30;99930.63;5095679;28;20047;-64
2022/05/25 08:43:40;;;;;;;2.60;1.70;;;;;;;13.81;63.90;99925.44;5096422;28;20052;-64
2022/05/25 08:46:29;;;;;;;1.63;1.48;;;;;;;13.85;63.99;99926.28;5096126;28;20109;-64
2022/05/25 08:49:22;;;;;;;1.95;1.50;;;;;;;13.85;64.24;99924.56;5100417;28;20135;-63
2022/05/25 08:52:20;;;;;;;4.13;1.63;;;;;;;13.86;64.06;99921.06;5116976;28;20042;-64
2022/05/25 08:56:45;;;;;;;1.98;1.60;;;;;;;13.93;63.93;99915.88;5083568;27;2018243;-65
2022/05/25 08:59:46;;;;;;;2.20;1.70;;;;;;;13.94;63.85;99918.47;5116522;28;20047;-64
2022/05/25 09:02:57;;;;;;;2.28;1.67;;;;;;;13.96;63.85;99914.13;5116473;28;20165;-64
2022/05/25 09:05:59;;;;;;;3.00;1.70;;;;;;;13.99;63.64;99921.94;5116585;28;20471;-64
2022/05/25 09:08:58;;;;;;;2.33;1.70;;;;;;;14.03;63.98;99916.75;5131839;28;20569;-64
2022/05/25 09:11:51;;;;;;;4.70;1.65;;;;;;;14.06;63.89;99921.97;5116458;28;20113;-64
2022/05/25 09:15:05;;;;;;;1.50;1.40;;;;;;;14.09;63.87;99921.97;5115693;28;20104;-64
2022/05/25 09:18:08;;;;;;;5.53;1.50;;;;;;;14.10;63.79;99901.09;5131440;28;20095;-64
2022/05/25 09:20:55;;;;;;;3.33;1.50;;;;;;;14.15;63.66;99925.44;5115681;28;20062;-64
2022/05/25 09:23:44;;;;;;;8.07;2.00;;;;;;;14.14;63.75;99918.47;5131519;28;20082;-64
2022/05/25 09:26:28;;;;;;;1.90;1.65;;;;;;;14.21;63.71;99928.88;5131576;28;20555;-63
2022/05/25 09:29:20;;;;;;;2.72;2.28;;;;;;;14.22;63.48;99928.91;5115571;28;20069;-64
2022/05/25 09:32:42;;;;;;;2.72;1.60;;;;;;;14.22;63.41;99921.09;5131371;28;20047;-65
2022/05/25 09:35:36;;;;;;;2.15;1.40;;;;;;;14.25;63.32;99931.47;5131103;28;20091;-64
2022/05/25 09:38:43;;;;;;;3.35;1.75;;;;;;;14.25;63.56;99921.06;5130984;28;20054;-64
2022/05/25 09:41:31;;;;;;;2.38;1.40;;;;;;;14.26;63.38;99924.56;5115012;28;20131;-64
2022/05/25 09:44:19;;;;;;;2.90;1.55;;;;;;;14.27;63.38;99916.72;5115531;28;20074;-64
2022/05/25 09:47:25;;;;;;;2.05;1.80;;;;;;;14.28;63.18;99918.44;5115779;28;20452;-64
2022/05/25 09:50:25;;;;;;;4.35;1.40;;;;;;;14.31;63.11;99926.28;5130385;28;20076;-64
2022/05/25 09:53:17;;;;;;;2.60;1.55;;;;;;;14.34;63.05;99927.16;5115512;28;20058;-64
2022/05/25 09:56:17;;;;;;;1.60;1.30;;;;;;;14.35;63.01;99926.28;5130262;28;20062;-64
2022/05/25 09:59:07;;;;;;;3.20;1.42;;;;;;;14.36;62.95;99935.84;5115539;28;20046;-64
2022/05/25 10:01:55;;;;;;;1.27;1.00;;;;;;;14.41;62.73;99937.56;5115358;28;20055;-63
2022/05/25 10:04:51;;;;;;;2.05;1.42;;;;;;;14.42;62.68;99936.69;5114831;28;20051;-64
2022/05/25 10:07:50;;;;;;;1.60;1.50;;;;;;;14.42;62.77;99934.09;5104425;28;20058;-64
2022/05/25 10:10:43;;;;;;;1.50;1.40;;;;;;;14.41;62.74;99937.56;5101197;28;20046;-64
2022/05/25 10:13:42;;;;;;;1.38;1.27;;;;;;;14.41;62.70;99927.13;5116319;28;20567;-65
2022/05/25 10:16:34;;;;;;;3.75;1.35;;;;;;;14.40;62.55;99930.59;5101185;28;20051;-64
2022/05/25 10:19:22;;;;;;;2.50;1.15;;;;;;;14.40;62.71;99934.97;5116222;28;20521;-64
2022/05/25 10:22:30;;;;;;;4.45;1.73;;;;;;;14.39;62.39;99933.22;5116705;28;20051;-64
2022/05/25 10:25:34;;;;;;;1.55;1.20;;;;;;;14.38;62.71;99937.56;5116190;28;20046;-65
2022/05/25 10:28:31;;;;;;;2.90;1.50;;;;;;;14.38;62.40;99932.34;5116671;28;20109;-64
2022/05/25 10:38:03;;;;;;;2.80;1.40;;;;;;;14.42;62.66;99928.00;5116513;28;20050;-64
2022/05/25 10:40:56;;;;;;;1.83;1.30;;;;;;;14.43;62.40;99929.72;5100825;28;20434;-64
2022/05/25 10:43:50;;;;;;;1.88;1.35;;;;;;;14.46;62.64;99934.94;5100808;28;20135;-64
2022/05/25 10:46:37;;;;;;;2.78;1.48;;;;;;;14.46;62.39;99934.94;5116198;28;20073;-64
2022/05/25 10:49:27;;;;;;;1.35;1.25;;;;;;;14.48;62.39;99932.34;5115814;28;20073;-64
2022/05/25 10:52:34;;;;;;;1.58;1.20;;;;;;;14.51;62.29;99932.31;5100833;28;20509;-64
2022/05/25 10:55:24;;;;;;;2.45;1.70;;;;;;;14.53;62.00;99943.63;5100249;28;20430;-64
2022/05/25 10:58:24;;;;;;;3.47;1.40;;;;;;;14.56;62.05;99931.44;5100812;28;20398;-64
2022/05/25 11:01:07;;;;;;;5.65;1.75;;;;;;;14.57;61.85;99935.78;5100703;28;20055;-66
2022/05/25 11:04:03;;;;;;;1.40;1.30;;;;;;;14.58;61.82;99932.31;5115681;28;20085;-64
2022/05/25 11:07:29;;;;;;;2.63;1.55;;;;;;;14.61;61.83;99932.31;5100628;28;20135;-64
2022/05/25 11:10:39;;;;;;;3.63;1.70;;;;;;;14.62;61.19;99933.19;5100285;28;20452;-64
2022/05/25 11:13:36;;;;;;;1.88;1.45;;;;;;;14.63;61.50;99947.97;5115620;28;20077;-64
2022/05/25 11:16:33;;;;;;;3.50;2.10;;;;;;;14.64;61.57;99949.66;5099769;28;20043;-63
2022/05/25 11:19:43;;;;;;;2.28;1.60;;;;;;;14.61;61.70;99940.13;5099444;28;20105;-64
2022/05/25 11:22:45;;;;;;;5.25;1.95;;;;;;;14.62;61.41;99947.09;5115320;28;20451;-64
2022/05/25 11:25:52;;;;;;;5.28;1.75;;;;;;;14.60;61.41;99958.41;5100119;28;20078;-64
2022/05/25 11:28:42;;;;;;;5.05;1.67;;;;;;;14.58;61.58;99932.31;5100134;28;20067;-64
2022/05/25 11:32:11;;;;;;;1.90;1.70;;;;;;;14.60;61.54;99940.16;5115241;28;20042;-64
2022/05/25 11:35:11;;;;;;;3.25;1.40;;;;;;;14.61;61.52;99937.53;5087301;28;20055;-64
2022/05/25 11:38:04;;;;;;;6.78;2.08;;;;;;;14.62;61.45;99936.66;5099909;28;20069;-64
2022/05/25 11:40:59;;;;;;;4.85;1.67;;;;;;;14.64;61.24;99938.38;5099785;28;20093;-64
2022/05/25 11:43:53;;;;;;;8.00;2.53;;;;;;;14.65;61.29;99940.97;5099301;28;20054;-64
2022/05/25 11:46:43;;;;;;;8.20;2.17;;;;;;;14.66;61.43;99936.66;5099677;28;20157;-64
2022/05/25 11:49:42;;;;;;;18.02;4.78;;;;;;;14.67;61.40;99923.59;5099051;28;20105;-64
2022/05/25 11:52:45;;;;;;;13.45;3.60;;;;;;;14.69;61.06;99929.72;5114801;28;20054;-64
2022/05/25 11:55:38;;;;;;;27.33;4.55;;;;;;;14.69;60.97;99927.09;5114501;28;20055;-64
2022/05/25 11:58:44;;;;;;;16.52;3.38;;;;;;;14.70;60.86;99913.19;5114570;28;20406;-64
2022/05/25 12:01:37;;;;;;;13.05;3.65;;;;;;;14.69;60.96;99914.06;5099252;28;20134;-64
2022/05/25 12:04:53;;;;;;;11.10;3.22;;;;;;;14.69;60.98;99916.66;5114101;28;20126;-64
2022/05/25 12:07:56;;;;;;;14.02;3.70;;;;;;;14.70;60.95;99909.72;5098746;28;20078;-64
2022/05/25 12:10:42;;;;;;;9.65;2.95;;;;;;;14.68;60.93;99919.28;5098235;28;20055;-65
2022/05/25 12:13:38;;;;;;;5.85;2.58;;;;;;;14.70;60.90;99930.59;5098586;28;20046;-64
2022/05/25 12:16:43;;;;;;;9.90;2.58;;;;;;;14.69;60.67;99924.50;5099017;28;20058;-64
2022/05/25 12:19:30;;;;;;;6.10;1.80;;;;;;;14.71;60.87;99921.91;5098718;28;20085;-64
2022/05/25 12:22:18;;;;;;;3.58;2.20;;;;;;;14.74;60.70;99924.47;5112989;28;20046;-64
2022/05/25 12:25:09;;;;;;;5.97;3.00;;;;;;;14.72;60.92;99927.09;5097314;28;20062;-65
2022/05/25 12:27:57;;;;;;;6.90;1.95;;;;;;;14.74;60.51;99932.28;5098607;28;20034;-64
2022/05/25 12:30:47;;;;;;;7.95;2.53;;;;;;;14.75;60.47;99923.59;5098451;28;20042;-64
2022/05/25 12:33:35;;;;;;;7.47;2.25;;;;;;;14.73;60.48;99921.00;5098569;28;20077;-64
2022/05/25 12:36:21;;;;;;;10.15;2.85;;;;;;;14.75;60.51;99924.47;5097093;28;20072;-65
2022/05/25 12:39:05;;;;;;;10.82;2.00;;;;;;;14.77;60.30;99919.25;5113517;28;20513;-64
2022/05/25 12:41:49;;;;;;;9.70;2.05;;;;;;;14.75;60.58;99928.81;5113324;28;20078;-64
2022/05/25 12:51:06;;;;;;;8.95;2.00;;;;;;;14.71;60.30;99935.78;5113356;28;20054;-64
2022/05/25 12:53:49;;;;;;;8.57;1.83;;;;;;;14.78;60.22;99928.81;5098412;28;20093;-65
2022/05/25 12:56:38;;;;;;;8.88;2.15;;;;;;;14.79;60.13;99938.38;5114013;28;20059;-63
2022/05/25 12:59:39;;;;;;;2.92;1.60;;;;;;;14.80;59.88;99926.19;5113796;28;20093;-64
2022/05/25 13:02:29;;;;;;;18.80;2.40;;;;;;;14.80;59.86;99929.69;5098280;28;20153;-64
2022/05/25 13:05:52;;;;;;;7.28;1.70;;;;;;;14.81;60.27;99943.56;5113813;28;20223;-65
2022/05/25 13:08:46;;;;;;;4.18;1.52;;;;;;;14.80;59.95;99945.34;5113582;28;20232;-64
2022/05/25 13:11:45;;;;;;;5.22;2.15;;;;;;;14.82;60.09;99934.88;5098490;28;20094;-64
2022/05/25 13:14:29;;;;;;;1.92;1.60;;;;;;;14.81;59.86;99927.94;5113914;28;20055;-64
2022/05/25 13:18:02;;;;;;;4.38;2.15;;;;;;;14.81;59.96;99936.63;5098074;28;20074;-64
2022/05/25 13:20:50;;;;;;;6.10;1.98;;;;;;;14.81;60.54;99923.59;5113510;28;20051;-64
2022/05/25 13:23:52;;;;;;;2.65;1.70;;;;;;;14.83;59.96;99926.19;5098558;28;20074;-64
2022/05/25 13:27:09;;;;;;;4.82;1.60;;;;;;;14.83;59.69;99927.06;5113171;28;20093;-65
2022/05/25 13:30:03;;;;;;;10.50;1.70;;;;;;;14.84;59.63;99928.81;5098010;28;20411;-65
2022/05/25 13:32:58;;;;;;;4.10;1.65;;;;;;;14.84;59.93;99925.31;5113630;28;20213;-64
2022/05/25 13:35:49;;;;;;;2.28;1.63;;;;;;;14.83;59.79;99934.91;5098237;28;20477;-64
2022/05/25 13:38:41;;;;;;;3.92;1.40;;;;;;;14.84;59.77;99922.69;5098227;28;20046;-64
2022/05/25 13:41:49;;;;;;;3.10;1.80;;;;;;;14.81;59.91;99933.16;5098359;28;20429;-64
2022/05/25 13:44:39;;;;;;;1.42;1.20;;;;;;;14.85;59.75;99927.06;5112265;28;20429;-65
2022/05/25 13:47:26;;;;;;;2.22;1.38;;;;;;;14.85;59.88;99924.44;5117032;28;20046;-64
2022/05/25 13:50:13;;;;;;;3.15;1.83;;;;;;;14.86;59.81;99926.19;5102043;28;20488;-64
2022/05/25 13:53:02;;;;;;;4.18;1.52;;;;;;;14.88;59.60;99933.13;5101576;28;20319;-65
2022/05/25 13:55:47;;;;;;;4.25;1.55;;;;;;;14.89;59.49;99920.97;5101341;28;20057;-64
2022/05/25 13:58:31;;;;;;;1.88;1.60;;;;;;;14.92;59.60;99923.56;5101508;28;20513;-65
2022/05/25 14:01:22;;;;;;;3.15;1.70;;;;;;;14.89;59.55;99920.97;5117823;28;20059;-64
2022/05/25 14:04:28;;;;;;;1.52;1.42;;;;;;;14.92;59.38;99926.16;5117214;28;20521;-64